sensor_id;sensor_type;location;lat;lon;timestamp;pressure;altitude;pressure_sealevel;temperature;humidity
62025;BME280;47978;49.118;12.146;2023-02-21T00:03:35;97870.53;;;2.50;89.14
62025;BME280;47978;49.118;12.146;2023-02-21T00:07:37;97873.81;;;2.35;90.16
62025;BME280;47978;49.118;12.146;2023-02-21T00:11:39;97881.13;;;2.46;89.60
62025;BME280;47978;49.118;12.146;2023-02-21T00:15:42;97874.88;;;2.34;89.92
62025;BME280;47978;49.118;12.146;2023-02-21T00:19:44;97875.44;;;2.48;89.45
62025;BME280;47978;49.118;12.146;2023-02-21T00:23:45;97868.06;;;2.48;88.95
62025;BME280;47978;49.118;12.146;2023-02-21T00:27:46;97868.22;;;2.59;88.61
62025;BME280;47978;49.118;12.146;2023-02-21T00:31:49;97864.63;;;2.41;88.94
62025;BME280;47978;49.118;12.146;2023-02-21T00:35:50;97858.13;;;2.42;89.11
62025;BME280;47978;49.118;12.146;2023-02-21T00:39:52;97850.44;;;2.39;89.46
62025;BME280;47978;49.118;12.146;2023-02-21T00:43:53;97859.09;;;2.36;89.32
62025;BME280;47978;49.118;12.146;2023-02-21T00:47:56;97853.41;;;2.38;89.77
62025;BME280;47978;49.118;12.146;2023-02-21T00:51:57;97852.25;;;2.34;89.92
62025;BME280;47978;49.118;12.146;2023-02-21T00:55:59;97856.34;;;2.19;89.99
62025;BME280;47978;49.118;12.146;2023-02-21T01:00:00;97846.28;;;2.08;90.78
62025;BME280;47978;49.118;12.146;2023-02-21T01:04:03;97839.97;;;2.19;90.48
62025;BME280;47978;49.118;12.146;2023-02-21T01:08:05;97847.50;;;2.29;89.82
62025;BME280;47978;49.118;12.146;2023-02-21T01:12:06;97840.41;;;2.28;89.29
62025;BME280;47978;49.118;12.146;2023-02-21T01:16:07;97845.75;;;2.23;90.20
62025;BME280;47978;49.118;12.146;2023-02-21T01:20:10;97851.16;;;2.35;89.99
62025;BME280;47978;49.118;12.146;2023-02-21T01:24:13;97861.56;;;2.38;89.78
62025;BME280;47978;49.118;12.146;2023-02-21T01:28:15;97847.22;;;2.14;91.21
62025;BME280;47978;49.118;12.146;2023-02-21T01:32:16;97857.31;;;2.01;91.88
62025;BME280;47978;49.118;12.146;2023-02-21T01:36:19;97851.19;;;1.94;92.28
62025;BME280;47978;49.118;12.146;2023-02-21T01:40:20;97841.31;;;2.05;92.25
62025;BME280;47978;49.118;12.146;2023-02-21T01:48:41;97833.31;;;2.15;92.24
62025;BME280;47978;49.118;12.146;2023-02-21T01:52:44;97835.31;;;1.91;92.66
62025;BME280;47978;49.118;12.146;2023-02-21T01:56:47;97833.16;;;1.93;92.20
62025;BME280;47978;49.118;12.146;2023-02-21T02:00:48;97831.09;;;2.12;92.23
62025;BME280;47978;49.118;12.146;2023-02-21T02:04:50;97818.84;;;2.15;91.82
62025;BME280;47978;49.118;12.146;2023-02-21T02:08:54;97818.22;;;2.24;91.36
62025;BME280;47978;49.118;12.146;2023-02-21T02:12:59;97809.59;;;2.16;91.17
62025;BME280;47978;49.118;12.146;2023-02-21T02:17:06;97799.00;;;2.02;92.22
62025;BME280;47978;49.118;12.146;2023-02-21T02:21:21;97801.78;;;1.79;93.20
62025;BME280;47978;49.118;12.146;2023-02-21T02:25:30;97800.28;;;1.71;93.64
62025;BME280;47978;49.118;12.146;2023-02-21T02:29:43;97793.03;;;1.77;94.30
62025;BME280;47978;49.118;12.146;2023-02-21T02:38:10;97811.00;;;1.90;93.07
62025;BME280;47978;49.118;12.146;2023-02-21T02:42:17;97806.75;;;1.94;92.81
62025;BME280;47978;49.118;12.146;2023-02-21T02:46:21;97810.94;;;1.73;94.06
62025;BME280;47978;49.118;12.146;2023-02-21T02:50:23;97811.38;;;1.82;93.32
62025;BME280;47978;49.118;12.146;2023-02-21T02:54:27;97806.56;;;1.72;93.59
62025;BME280;47978;49.118;12.146;2023-02-21T02:58:30;97799.69;;;1.69;93.64
62025;BME280;47978;49.118;12.146;2023-02-21T03:02:36;97804.25;;;1.52;94.32
62025;BME280;47978;49.118;12.146;2023-02-21T03:06:43;97801.44;;;1.35;94.47
62025;BME280;47978;49.118;12.146;2023-02-21T03:10:51;97801.34;;;1.18;95.79
62025;BME280;47978;49.118;12.146;2023-02-21T03:14:55;97807.25;;;1.15;96.45
62025;BME280;47978;49.118;12.146;2023-02-21T03:19:01;97808.88;;;1.28;95.89
62025;BME280;47978;49.118;12.146;2023-02-21T03:23:04;97809.50;;;1.30;95.67
62025;BME280;47978;49.118;12.146;2023-02-21T03:27:07;97809.16;;;1.15;95.95
62025;BME280;47978;49.118;12.146;2023-02-21T03:31:09;97810.59;;;1.17;96.28
62025;BME280;47978;49.118;12.146;2023-02-21T03:35:12;97813.03;;;1.19;96.04
62025;BME280;47978;49.118;12.146;2023-02-21T03:39:14;97807.09;;;1.33;95.43
62025;BME280;47978;49.118;12.146;2023-02-21T03:43:16;97800.72;;;1.28;95.44
62025;BME280;47978;49.118;12.146;2023-02-21T03:47:18;97814.81;;;1.25;95.61
62025;BME280;47978;49.118;12.146;2023-02-21T03:51:19;97810.69;;;1.34;95.12
62025;BME280;47978;49.118;12.146;2023-02-21T03:55:20;97819.44;;;1.36;95.07
62025;BME280;47978;49.118;12.146;2023-02-21T03:59:23;97820.38;;;1.30;94.93
62025;BME280;47978;49.118;12.146;2023-02-21T04:03:24;97812.66;;;1.39;94.58
62025;BME280;47978;49.118;12.146;2023-02-21T04:07:26;97829.38;;;1.30;94.62
62025;BME280;47978;49.118;12.146;2023-02-21T04:11:27;97815.53;;;1.32;94.71
62025;BME280;47978;49.118;12.146;2023-02-21T04:15:30;97816.34;;;1.32;93.84
62025;BME280;47978;49.118;12.146;2023-02-21T04:19:31;97820.75;;;1.45;93.64
62025;BME280;47978;49.118;12.146;2023-02-21T04:23:33;97818.41;;;1.25;94.26
62025;BME280;47978;49.118;12.146;2023-02-21T04:27:34;97820.63;;;1.17;94.97
62025;BME280;47978;49.118;12.146;2023-02-21T04:31:37;97823.34;;;1.17;94.87
62025;BME280;47978;49.118;12.146;2023-02-21T04:35:39;97830.81;;;1.09;95.59
62025;BME280;47978;49.118;12.146;2023-02-21T04:39:40;97827.16;;;1.16;95.10
62025;BME280;47978;49.118;12.146;2023-02-21T04:43:41;97822.88;;;1.08;96.09
62025;BME280;47978;49.118;12.146;2023-02-21T04:47:44;97823.34;;;1.17;95.65
62025;BME280;47978;49.118;12.146;2023-02-21T04:51:46;97815.06;;;1.23;95.46
62025;BME280;47978;49.118;12.146;2023-02-21T04:55:47;97815.66;;;1.37;95.58
62025;BME280;47978;49.118;12.146;2023-02-21T04:59:54;97814.44;;;1.45;94.87
62025;BME280;47978;49.118;12.146;2023-02-21T05:03:57;97811.13;;;1.54;95.17
62025;BME280;47978;49.118;12.146;2023-02-21T05:07:59;97802.19;;;1.59;95.97
62025;BME280;47978;49.118;12.146;2023-02-21T05:12:00;97803.50;;;1.56;96.94
62025;BME280;47978;49.118;12.146;2023-02-21T05:16:01;97792.13;;;1.71;97.10
62025;BME280;47978;49.118;12.146;2023-02-21T05:20:04;97788.66;;;1.76;97.63
62025;BME280;47978;49.118;12.146;2023-02-21T05:24:06;97799.28;;;1.89;97.94
62025;BME280;47978;49.118;12.146;2023-02-21T05:28:08;97789.34;;;2.12;97.70
62025;BME280;47978;49.118;12.146;2023-02-21T05:32:09;97784.91;;;2.22;96.96
62025;BME280;47978;49.118;12.146;2023-02-21T05:36:12;97790.31;;;2.34;96.86
62025;BME280;47978;49.118;12.146;2023-02-21T05:40:14;97779.63;;;2.50;96.87
62025;BME280;47978;49.118;12.146;2023-02-21T05:44:15;97783.88;;;2.57;97.19
62025;BME280;47978;49.118;12.146;2023-02-21T05:48:17;97785.00;;;2.61;97.20
62025;BME280;47978;49.118;12.146;2023-02-21T05:52:20;97778.66;;;2.73;97.09
62025;BME280;47978;49.118;12.146;2023-02-21T05:56:21;97786.44;;;2.81;96.95
62025;BME280;47978;49.118;12.146;2023-02-21T06:00:24;97788.97;;;3.04;96.53
62025;BME280;47978;49.118;12.146;2023-02-21T06:04:26;97785.47;;;3.26;95.25
62025;BME280;47978;49.118;12.146;2023-02-21T06:08:28;97788.38;;;3.19;94.70
62025;BME280;47978;49.118;12.146;2023-02-21T06:12:30;97796.72;;;3.29;94.19
62025;BME280;47978;49.118;12.146;2023-02-21T06:16:32;97786.84;;;3.45;94.15
62025;BME280;47978;49.118;12.146;2023-02-21T06:20:33;97795.53;;;3.42;94.19
62025;BME280;47978;49.118;12.146;2023-02-21T06:24:36;97801.72;;;3.54;94.12
62025;BME280;47978;49.118;12.146;2023-02-21T06:28:37;97793.50;;;3.54;94.95
62025;BME280;47978;49.118;12.146;2023-02-21T06:32:39;97795.59;;;3.69;94.28
62025;BME280;47978;49.118;12.146;2023-02-21T06:36:41;97803.38;;;3.77;94.65
62025;BME280;47978;49.118;12.146;2023-02-21T06:40:44;97811.34;;;3.79;94.94
62025;BME280;47978;49.118;12.146;2023-02-21T06:44:46;97808.97;;;3.88;95.33
62025;BME280;47978;49.118;12.146;2023-02-21T06:48:48;97808.56;;;4.01;95.30
62025;BME280;47978;49.118;12.146;2023-02-21T06:52:49;97806.53;;;4.13;94.88
62025;BME280;47978;49.118;12.146;2023-02-21T06:56:53;97808.81;;;4.21;94.65
62025;BME280;47978;49.118;12.146;2023-02-21T07:00:54;97810.56;;;4.33;94.29
62025;BME280;47978;49.118;12.146;2023-02-21T07:04:58;97817.00;;;4.48;94.22
62025;BME280;47978;49.118;12.146;2023-02-21T07:09:00;97817.16;;;4.64;93.77
62025;BME280;47978;49.118;12.146;2023-02-21T07:13:02;97817.03;;;4.81;93.72
62025;BME280;47978;49.118;12.146;2023-02-21T07:17:04;97822.72;;;5.06;92.71
62025;BME280;47978;49.118;12.146;2023-02-21T07:21:05;97820.34;;;5.20;92.46
62025;BME280;47978;49.118;12.146;2023-02-21T07:25:06;97820.19;;;5.37;91.95
62025;BME280;47978;49.118;12.146;2023-02-21T07:29:09;97829.03;;;5.49;90.70
62025;BME280;47978;49.118;12.146;2023-02-21T07:33:11;97833.00;;;5.63;89.87
62025;BME280;47978;49.118;12.146;2023-02-21T07:37:12;97842.97;;;5.85;88.11
62025;BME280;47978;49.118;12.146;2023-02-21T07:41:14;97841.63;;;5.93;87.03
62025;BME280;47978;49.118;12.146;2023-02-21T07:45:17;97836.50;;;6.12;85.64
62025;BME280;47978;49.118;12.146;2023-02-21T07:49:19;97853.31;;;6.25;84.14
62025;BME280;47978;49.118;12.146;2023-02-21T07:53:20;97853.03;;;6.22;82.84
62025;BME280;47978;49.118;12.146;2023-02-21T07:57:22;97850.28;;;6.17;82.68
62025;BME280;47978;49.118;12.146;2023-02-21T08:01:25;97852.53;;;6.40;81.53
62025;BME280;47978;49.118;12.146;2023-02-21T08:05:26;97853.97;;;6.53;80.99
62025;BME280;47978;49.118;12.146;2023-02-21T08:09:28;97859.19;;;6.55;80.26
62025;BME280;47978;49.118;12.146;2023-02-21T08:13:29;97859.50;;;6.63;78.96
62025;BME280;47978;49.118;12.146;2023-02-21T08:17:32;97865.25;;;6.67;79.27
62025;BME280;47978;49.118;12.146;2023-02-21T08:21:33;97867.78;;;6.84;78.07
62025;BME280;47978;49.118;12.146;2023-02-21T08:25:35;97864.19;;;6.93;78.89
62025;BME280;47978;49.118;12.146;2023-02-21T08:29:36;97869.44;;;7.10;78.46
62025;BME280;47978;49.118;12.146;2023-02-21T08:33:39;97866.16;;;7.24;78.33
62025;BME280;47978;49.118;12.146;2023-02-21T08:37:42;97857.06;;;7.49;77.66
62025;BME280;47978;49.118;12.146;2023-02-21T08:41:44;97858.09;;;7.78;77.09
62025;BME280;47978;49.118;12.146;2023-02-21T08:45:46;97849.19;;;8.12;74.05
62025;BME280;47978;49.118;12.146;2023-02-21T08:49:48;97848.03;;;8.23;73.60
62025;BME280;47978;49.118;12.146;2023-02-21T08:53:50;97852.41;;;8.24;73.61
62025;BME280;47978;49.118;12.146;2023-02-21T08:57:52;97854.09;;;8.20;74.27
62025;BME280;47978;49.118;12.146;2023-02-21T09:01:54;97852.97;;;8.26;74.54
62025;BME280;47978;49.118;12.146;2023-02-21T09:05:57;97851.00;;;8.37;74.26
62025;BME280;47978;49.118;12.146;2023-02-21T09:09:58;97854.75;;;8.56;73.30
62025;BME280;47978;49.118;12.146;2023-02-21T09:14:01;97852.81;;;8.62;73.93
62025;BME280;47978;49.118;12.146;2023-02-21T09:18:03;97854.84;;;8.91;72.30
62025;BME280;47978;49.118;12.146;2023-02-21T09:22:06;97853.38;;;9.04;72.71
62025;BME280;47978;49.118;12.146;2023-02-21T09:26:08;97862.81;;;9.32;71.39
62025;BME280;47978;49.118;12.146;2023-02-21T09:30:10;97871.31;;;9.35;70.35
62025;BME280;47978;49.118;12.146;2023-02-21T09:34:12;97859.50;;;9.30;71.03
62025;BME280;47978;49.118;12.146;2023-02-21T09:38:15;97867.13;;;9.43;71.05
62025;BME280;47978;49.118;12.146;2023-02-21T09:42:17;97863.63;;;9.61;70.16
62025;BME280;47978;49.118;12.146;2023-02-21T09:46:20;97852.09;;;9.83;70.50
62025;BME280;47978;49.118;12.146;2023-02-21T09:50:26;97848.22;;;9.84;70.17
62025;BME280;47978;49.118;12.146;2023-02-21T09:54:31;97852.88;;;9.89;70.80
62025;BME280;47978;49.118;12.146;2023-02-21T09:58:33;97851.56;;;9.81;69.83
62025;BME280;47978;49.118;12.146;2023-02-21T10:02:39;97850.31;;;9.68;71.76
62025;BME280;47978;49.118;12.146;2023-02-21T10:06:46;97852.50;;;9.96;71.92
62025;BME280;47978;49.118;12.146;2023-02-21T10:10:54;97857.56;;;10.42;70.20
62025;BME280;47978;49.118;12.146;2023-02-21T10:15:02;97858.34;;;10.85;68.86
62025;BME280;47978;49.118;12.146;2023-02-21T10:19:06;97851.28;;;10.93;68.17
62025;BME280;47978;49.118;12.146;2023-02-21T10:23:14;97849.84;;;11.14;67.93
62025;BME280;47978;49.118;12.146;2023-02-21T10:27:18;97847.28;;;11.37;67.22
62025;BME280;47978;49.118;12.146;2023-02-21T10:31:23;97849.31;;;11.31;67.65
62025;BME280;47978;49.118;12.146;2023-02-21T10:35:25;97844.31;;;11.33;67.76
62025;BME280;47978;49.118;12.146;2023-02-21T10:39:28;97841.13;;;11.40;68.23
62025;BME280;47978;49.118;12.146;2023-02-21T10:43:33;97846.44;;;11.69;68.71
62025;BME280;47978;49.118;12.146;2023-02-21T10:47:39;97840.56;;;12.03;67.13
62025;BME280;47978;49.118;12.146;2023-02-21T10:51:45;97831.53;;;12.11;68.09
62025;BME280;47978;49.118;12.146;2023-02-21T10:55:46;97829.38;;;12.36;66.81
62025;BME280;47978;49.118;12.146;2023-02-21T11:00:08;97820.00;;;12.59;66.37
62025;BME280;47978;49.118;12.146;2023-02-21T11:04:21;97824.72;;;12.59;65.57
62025;BME280;47978;49.118;12.146;2023-02-21T11:08:33;97827.06;;;12.66;65.62
62025;BME280;47978;49.118;12.146;2023-02-21T11:12:35;97811.28;;;12.52;65.65
62025;BME280;47978;49.118;12.146;2023-02-21T11:16:37;97807.19;;;12.50;66.05
62025;BME280;47978;49.118;12.146;2023-02-21T11:20:39;97804.22;;;12.32;66.47
62025;BME280;47978;49.118;12.146;2023-02-21T11:24:49;97803.78;;;12.53;66.31
62025;BME280;47978;49.118;12.146;2023-02-21T11:28:51;97803.09;;;12.83;65.44
62025;BME280;47978;49.118;12.146;2023-02-21T11:32:55;97787.44;;;13.10;63.84
62025;BME280;47978;49.118;12.146;2023-02-21T11:37:00;97782.88;;;12.92;64.76
62025;BME280;47978;49.118;12.146;2023-02-21T11:41:02;97790.72;;;12.90;65.12
62025;BME280;47978;49.118;12.146;2023-02-21T11:45:12;97770.09;;;13.04;64.88
62025;BME280;47978;49.118;12.146;2023-02-21T11:49:16;97768.38;;;13.17;63.87
62025;BME280;47978;49.118;12.146;2023-02-21T11:53:19;97750.16;;;13.25;64.12
62025;BME280;47978;49.118;12.146;2023-02-21T11:57:23;97748.59;;;13.10;64.60
62025;BME280;47978;49.118;12.146;2023-02-21T12:01:27;97748.06;;;13.08;64.90
62025;BME280;47978;49.118;12.146;2023-02-21T12:05:33;97743.69;;;13.30;64.99
62025;BME280;47978;49.118;12.146;2023-02-21T12:09:38;97737.34;;;13.38;64.06
62025;BME280;47978;49.118;12.146;2023-02-21T12:13:48;97740.25;;;13.64;63.33
62025;BME280;47978;49.118;12.146;2023-02-21T12:22:11;97723.38;;;13.60;62.63
62025;BME280;47978;49.118;12.146;2023-02-21T12:26:20;97718.97;;;13.59;62.95
62025;BME280;47978;49.118;12.146;2023-02-21T12:30:37;97704.66;;;13.75;63.63
62025;BME280;47978;49.118;12.146;2023-02-21T12:34:42;97703.16;;;13.68;62.89
62025;BME280;47978;49.118;12.146;2023-02-21T12:39:00;97701.38;;;13.72;63.23
62025;BME280;47978;49.118;12.146;2023-02-21T12:43:07;97694.31;;;13.58;63.11
62025;BME280;47978;49.118;12.146;2023-02-21T12:47:14;97684.44;;;13.52;64.04
62025;BME280;47978;49.118;12.146;2023-02-21T12:51:18;97680.16;;;13.37;63.41
62025;BME280;47978;49.118;12.146;2023-02-21T12:55:23;97678.78;;;13.25;64.47
62025;BME280;47978;49.118;12.146;2023-02-21T12:59:27;97665.28;;;13.33;64.74
62025;BME280;47978;49.118;12.146;2023-02-21T13:03:33;97654.56;;;13.57;64.04
62025;BME280;47978;49.118;12.146;2023-02-21T13:07:37;97669.06;;;13.94;62.54
62025;BME280;47978;49.118;12.146;2023-02-21T13:11:47;97661.41;;;14.26;61.72
62025;BME280;47978;49.118;12.146;2023-02-21T13:15:50;97644.91;;;14.21;61.86
62025;BME280;47978;49.118;12.146;2023-02-21T13:19:53;97640.16;;;14.47;60.93
62025;BME280;47978;49.118;12.146;2023-02-21T13:23:56;97618.56;;;14.61;60.55
62025;BME280;47978;49.118;12.146;2023-02-21T13:28:01;97608.75;;;14.55;60.11
62025;BME280;47978;49.118;12.146;2023-02-21T13:32:06;97618.06;;;14.42;61.54
62025;BME280;47978;49.118;12.146;2023-02-21T13:36:15;97616.09;;;14.34;61.21
62025;BME280;47978;49.118;12.146;2023-02-21T13:40:20;97600.41;;;14.55;60.90
62025;BME280;47978;49.118;12.146;2023-02-21T13:44:24;97614.44;;;14.50;60.52
62025;BME280;47978;49.118;12.146;2023-02-21T13:48:27;97603.66;;;14.23;61.54
62025;BME280;47978;49.118;12.146;2023-02-21T13:52:36;97603.84;;;14.17;62.46
62025;BME280;47978;49.118;12.146;2023-02-21T13:56:50;97601.50;;;13.85;63.33
62025;BME280;47978;49.118;12.146;2023-02-21T14:00:53;97601.34;;;13.81;63.63
62025;BME280;47978;49.118;12.146;2023-02-21T14:04:59;97584.34;;;13.83;63.44
62025;BME280;47978;49.118;12.146;2023-02-21T14:09:05;97584.97;;;13.80;63.70
62025;BME280;47978;49.118;12.146;2023-02-21T14:13:23;97581.09;;;14.07;62.82
62025;BME280;47978;49.118;12.146;2023-02-21T14:17:27;97570.91;;;14.37;62.18
62025;BME280;47978;49.118;12.146;2023-02-21T14:21:31;97574.34;;;14.43;61.84
62025;BME280;47978;49.118;12.146;2023-02-21T14:25:34;97567.50;;;14.49;61.91
62025;BME280;47978;49.118;12.146;2023-02-21T14:29:36;97568.16;;;14.54;61.80
62025;BME280;47978;49.118;12.146;2023-02-21T14:33:39;97575.00;;;14.48;61.53
62025;BME280;47978;49.118;12.146;2023-02-21T14:37:43;97566.34;;;14.50;61.81
62025;BME280;47978;49.118;12.146;2023-02-21T14:41:56;97560.97;;;14.27;62.53
62025;BME280;47978;49.118;12.146;2023-02-21T14:46:04;97566.69;;;14.22;62.28
62025;BME280;47978;49.118;12.146;2023-02-21T14:50:15;97563.09;;;14.22;62.69
62025;BME280;47978;49.118;12.146;2023-02-21T14:54:26;97555.09;;;14.29;62.68
62025;BME280;47978;49.118;12.146;2023-02-21T15:02:50;97546.25;;;14.18;63.33
62025;BME280;47978;49.118;12.146;2023-02-21T15:06:58;97539.22;;;14.03;64.05
62025;BME280;47978;49.118;12.146;2023-02-21T15:11:01;97539.03;;;14.26;62.78
62025;BME280;47978;49.118;12.146;2023-02-21T15:15:03;97530.69;;;14.43;61.95
62025;BME280;47978;49.118;12.146;2023-02-21T15:19:05;97533.25;;;14.48;62.45
62025;BME280;47978;49.118;12.146;2023-02-21T15:23:11;97527.06;;;14.34;62.50
62025;BME280;47978;49.118;12.146;2023-02-21T15:27:13;97532.31;;;14.44;62.39
62025;BME280;47978;49.118;12.146;2023-02-21T15:31:15;97523.84;;;14.14;63.40
62025;BME280;47978;49.118;12.146;2023-02-21T15:35:19;97524.66;;;14.15;63.33
62025;BME280;47978;49.118;12.146;2023-02-21T15:39:25;97528.25;;;14.07;63.22
62025;BME280;47978;49.118;12.146;2023-02-21T15:43:31;97522.38;;;13.91;63.73
62025;BME280;47978;49.118;12.146;2023-02-21T15:47:34;97524.19;;;13.69;64.53
62025;BME280;47978;49.118;12.146;2023-02-21T15:51:36;97525.78;;;13.53;65.29
62025;BME280;47978;49.118;12.146;2023-02-21T15:55:39;97520.03;;;13.32;65.88
62025;BME280;47978;49.118;12.146;2023-02-21T15:59:41;97524.22;;;13.21;66.69
62025;BME280;47978;49.118;12.146;2023-02-21T16:03:43;97519.44;;;13.04;67.20
62025;BME280;47978;49.118;12.146;2023-02-21T16:07:44;97522.50;;;12.94;67.38
62025;BME280;47978;49.118;12.146;2023-02-21T16:11:49;97513.50;;;12.88;67.53
62025;BME280;47978;49.118;12.146;2023-02-21T16:15:51;97517.69;;;12.77;69.95
62025;BME280;47978;49.118;12.146;2023-02-21T16:19:53;97517.31;;;12.61;70.86
62025;BME280;47978;49.118;12.146;2023-02-21T16:23:55;97510.84;;;12.21;72.04
62025;BME280;47978;49.118;12.146;2023-02-21T16:27:58;97507.28;;;11.98;73.31
62025;BME280;47978;49.118;12.146;2023-02-21T16:32:00;97517.34;;;11.57;73.84
62025;BME280;47978;49.118;12.146;2023-02-21T16:36:04;97509.94;;;11.30;74.58
62025;BME280;47978;49.118;12.146;2023-02-21T16:40:10;97510.28;;;10.60;77.72
62025;BME280;47978;49.118;12.146;2023-02-21T16:44:13;97509.78;;;10.25;79.06
62025;BME280;47978;49.118;12.146;2023-02-21T16:48:15;97506.03;;;10.16;78.48
62025;BME280;47978;49.118;12.146;2023-02-21T16:52:17;97500.88;;;9.95;79.33
62025;BME280;47978;49.118;12.146;2023-02-21T16:56:19;97513.53;;;9.44;81.25
62025;BME280;47978;49.118;12.146;2023-02-21T17:00:21;97516.38;;;9.20;81.65
62025;BME280;47978;49.118;12.146;2023-02-21T17:04:23;97516.72;;;8.71;84.54
62025;BME280;47978;49.118;12.146;2023-02-21T17:08:25;97525.50;;;8.73;83.66
62025;BME280;47978;49.118;12.146;2023-02-21T17:12:27;97525.16;;;8.55;84.34
62025;BME280;47978;49.118;12.146;2023-02-21T17:16:30;97525.38;;;8.59;83.91
62025;BME280;47978;49.118;12.146;2023-02-21T17:20:31;97532.47;;;8.36;84.70
62025;BME280;47978;49.118;12.146;2023-02-21T17:24:32;97531.47;;;8.56;83.70
62025;BME280;47978;49.118;12.146;2023-02-21T17:28:34;97536.59;;;8.09;84.77
62025;BME280;47978;49.118;12.146;2023-02-21T17:32:39;97544.06;;;8.04;85.33
62025;BME280;47978;49.118;12.146;2023-02-21T17:36:40;97530.47;;;7.83;86.51
62025;BME280;47978;49.118;12.146;2023-02-21T17:40:41;97536.28;;;7.77;86.66
62025;BME280;47978;49.118;12.146;2023-02-21T17:44:43;97528.59;;;7.79;86.54
62025;BME280;47978;49.118;12.146;2023-02-21T17:48:46;97537.41;;;7.76;85.80
62025;BME280;47978;49.118;12.146;2023-02-21T17:52:47;97536.66;;;7.65;86.46
62025;BME280;47978;49.118;12.146;2023-02-21T17:56:49;97540.66;;;7.49;87.10
62025;BME280;47978;49.118;12.146;2023-02-21T18:00:50;97547.81;;;7.39;87.46
62025;BME280;47978;49.118;12.146;2023-02-21T18:04:53;97546.09;;;7.09;88.37
62025;BME280;47978;49.118;12.146;2023-02-21T18:08:54;97549.13;;;7.03;88.65
62025;BME280;47978;49.118;12.146;2023-02-21T18:12:56;97552.56;;;6.69;90.18
62025;BME280;47978;49.118;12.146;2023-02-21T18:16:57;97553.38;;;6.69;90.23
62025;BME280;47978;49.118;12.146;2023-02-21T18:21:00;97549.84;;;6.64;90.14
62025;BME280;47978;49.118;12.146;2023-02-21T18:25:02;97548.22;;;6.52;90.44
62025;BME280;47978;49.118;12.146;2023-02-21T18:29:04;97552.06;;;6.46;90.39
62025;BME280;47978;49.118;12.146;2023-02-21T18:33:05;97547.97;;;6.39;90.59
62025;BME280;47978;49.118;12.146;2023-02-21T18:37:08;97542.22;;;6.15;91.45
62025;BME280;47978;49.118;12.146;2023-02-21T18:41:10;97546.34;;;5.81;92.89
62025;BME280;47978;49.118;12.146;2023-02-21T18:45:11;97554.00;;;5.84;92.87
62025;BME280;47978;49.118;12.146;2023-02-21T18:49:12;97544.13;;;5.73;93.19
62025;BME280;47978;49.118;12.146;2023-02-21T18:53:15;97537.53;;;5.74;93.02
62025;BME280;47978;49.118;12.146;2023-02-21T18:57:18;97535.09;;;5.73;93.16
62025;BME280;47978;49.118;12.146;2023-02-21T19:01:20;97545.47;;;5.60;93.35
62025;BME280;47978;49.118;12.146;2023-02-21T19:05:23;97539.44;;;5.43;93.89
62025;BME280;47978;49.118;12.146;2023-02-21T19:09:26;97543.28;;;5.47;93.39
62025;BME280;47978;49.118;12.146;2023-02-21T19:13:27;97546.84;;;5.48;93.05
62025;BME280;47978;49.118;12.146;2023-02-21T19:17:28;97551.97;;;5.08;95.16
62025;BME280;47978;49.118;12.146;2023-02-21T19:21:30;97551.13;;;5.03;95.38
62025;BME280;47978;49.118;12.146;2023-02-21T19:25:33;97556.34;;;5.04;95.28
62025;BME280;47978;49.118;12.146;2023-02-21T19:29:34;97550.06;;;5.14;94.77
62025;BME280;47978;49.118;12.146;2023-02-21T19:33:35;97547.06;;;5.26;94.96
62025;BME280;47978;49.118;12.146;2023-02-21T19:37:37;97548.41;;;5.13;94.83
62025;BME280;47978;49.118;12.146;2023-02-21T19:41:40;97546.50;;;5.13;94.05
62025;BME280;47978;49.118;12.146;2023-02-21T19:45:41;97546.78;;;5.17;93.61
62025;BME280;47978;49.118;12.146;2023-02-21T19:49:42;97546.53;;;5.24;92.92
62025;BME280;47978;49.118;12.146;2023-02-21T19:53:44;97555.72;;;4.92;94.48
62025;BME280;47978;49.118;12.146;2023-02-21T19:57:47;97555.25;;;5.05;94.20
62025;BME280;47978;49.118;12.146;2023-02-21T20:01:48;97561.53;;;4.95;94.24
62025;BME280;47978;49.118;12.146;2023-02-21T20:05:50;97563.09;;;4.86;94.91
62025;BME280;47978;49.118;12.146;2023-02-21T20:09:51;97565.06;;;4.91;94.37
62025;BME280;47978;49.118;12.146;2023-02-21T20:13:54;97567.28;;;4.99;94.26
62025;BME280;47978;49.118;12.146;2023-02-21T20:17:55;97565.31;;;4.89;93.88
62025;BME280;47978;49.118;12.146;2023-02-21T20:21:57;97575.69;;;4.82;94.18
62025;BME280;47978;49.118;12.146;2023-02-21T20:25:58;97570.19;;;4.77;94.29
62025;BME280;47978;49.118;12.146;2023-02-21T20:30:01;97568.28;;;4.78;93.33
62025;BME280;47978;49.118;12.146;2023-02-21T20:34:03;97578.16;;;4.84;91.98
62025;BME280;47978;49.118;12.146;2023-02-21T20:38:04;97573.44;;;4.69;92.67
62025;BME280;47978;49.118;12.146;2023-02-21T20:42:06;97570.41;;;4.65;92.29
62025;BME280;47978;49.118;12.146;2023-02-21T20:46:08;97568.50;;;4.66;91.72
62025;BME280;47978;49.118;12.146;2023-02-21T20:50:12;97577.78;;;4.60;92.59
62025;BME280;47978;49.118;12.146;2023-02-21T20:54:14;97579.72;;;4.64;91.46
62025;BME280;47978;49.118;12.146;2023-02-21T20:58:15;97583.53;;;4.58;91.71
62025;BME280;47978;49.118;12.146;2023-02-21T21:02:18;97575.28;;;4.53;91.30
62025;BME280;47978;49.118;12.146;2023-02-21T21:06:19;97572.22;;;4.44;91.90
62025;BME280;47978;49.118;12.146;2023-02-21T21:10:21;97580.09;;;4.36;93.23
62025;BME280;47978;49.118;12.146;2023-02-21T21:14:22;97571.38;;;4.39;93.41
62025;BME280;47978;49.118;12.146;2023-02-21T21:18:25;97568.19;;;4.15;94.37
62025;BME280;47978;49.118;12.146;2023-02-21T21:22:26;97574.50;;;4.20;94.24
62025;BME280;47978;49.118;12.146;2023-02-21T21:26:28;97566.91;;;4.27;93.86
62025;BME280;47978;49.118;12.146;2023-02-21T21:30:29;97566.97;;;4.38;93.24
62025;BME280;47978;49.118;12.146;2023-02-21T21:34:32;97572.09;;;4.29;93.37
62025;BME280;47978;49.118;12.146;2023-02-21T21:38:34;97581.09;;;4.19;93.82
62025;BME280;47978;49.118;12.146;2023-02-21T21:42:35;97565.94;;;4.06;93.19